sensor_id;sensor_type;location;lat;lon;timestamp;pressure;altitude;pressure_sealevel;temperature;humidity
59513;BME280;45330;51.634;5.562;2023-05-12T00:01:19;101537.38;;;11.25;100.00
59513;BME280;45330;51.634;5.562;2023-05-12T00:03:44;101532.16;;;11.25;100.00
59513;BME280;45330;51.634;5.562;2023-05-12T00:06:10;101539.97;;;11.22;100.00
59513;BME280;45330;51.634;5.562;2023-05-12T00:08:36;101526.97;;;11.19;100.00
59513;BME280;45330;51.634;5.562;2023-05-12T00:11:01;101522.59;;;11.18;100.00
59513;BME280;45330;51.634;5.562;2023-05-12T00:13:27;101506.09;;;11.06;100.00
59513;BME280;45330;51.634;5.562;2023-05-12T00:15:53;101516.50;;;11.09;100.00
59513;BME280;45330;51.634;5.562;2023-05-12T00:18:21;101509.53;;;11.05;100.00
59513;BME280;45330;51.634;5.562;2023-05-12T00:20:46;101526.06;;;11.15;100.00
59513;BME280;45330;51.634;5.562;2023-05-12T00:23:12;101528.66;;;11.13;100.00
59513;BME280;45330;51.634;5.562;2023-05-12T00:25:38;101525.22;;;11.11;100.00
59513;BME280;45330;51.634;5.562;2023-05-12T00:28:03;101530.41;;;11.14;100.00
59513;BME280;45330;51.634;5.562;2023-05-12T00:30:29;101524.34;;;11.12;100.00
59513;BME280;45330;51.634;5.562;2023-05-12T00:32:54;101526.06;;;11.07;100.00
59513;BME280;45330;51.634;5.562;2023-05-12T00:35:20;101526.91;;;11.06;100.00
59513;BME280;45330;51.634;5.562;2023-05-12T00:37:45;101519.97;;;10.99;100.00
59513;BME280;45330;51.634;5.562;2023-05-12T00:40:10;101519.06;;;10.91;100.00
59513;BME280;45330;51.634;5.562;2023-05-12T00:42:36;101529.50;;;10.98;100.00
59513;BME280;45330;51.634;5.562;2023-05-12T00:45:02;101526.03;;;10.95;100.00
59513;BME280;45330;51.634;5.562;2023-05-12T00:47:28;101519.06;;;10.94;100.00
59513;BME280;45330;51.634;5.562;2023-05-12T00:49:54;101512.13;;;10.96;100.00
59513;BME280;45330;51.634;5.562;2023-05-12T00:52:19;101497.38;;;10.90;100.00
59513;BME280;45330;51.634;5.562;2023-05-12T00:54:45;101499.13;;;10.96;100.00
59513;BME280;45330;51.634;5.562;2023-05-12T00:57:12;101508.69;;;11.00;100.00
59513;BME280;45330;51.634;5.562;2023-05-12T00:59:37;101499.97;;;10.92;100.00
59513;BME280;45330;51.634;5.562;2023-05-12T01:02:03;101519.09;;;11.05;100.00
59513;BME280;45330;51.634;5.562;2023-05-12T01:04:29;101509.53;;;11.04;100.00
59513;BME280;45330;51.634;5.562;2023-05-12T01:06:58;101499.97;;;11.01;100.00
59513;BME280;45330;51.634;5.562;2023-05-12T01:09:25;101498.25;;;10.98;100.00
59513;BME280;45330;51.634;5.562;2023-05-12T01:11:50;101502.63;;;11.04;100.00
59513;BME280;45330;51.634;5.562;2023-05-12T01:14:16;101486.09;;;10.96;100.00
59513;BME280;45330;51.634;5.562;2023-05-12T01:16:52;101486.09;;;10.94;100.00
59513;BME280;45330;51.634;5.562;2023-05-12T01:21:52;101509.53;;;11.02;100.00
59513;BME280;45330;51.634;5.562;2023-05-12T01:24:19;101479.16;;;10.90;100.00
59513;BME280;45330;51.634;5.562;2023-05-12T01:26:45;101501.72;;;10.94;100.00
59513;BME280;45330;51.634;5.562;2023-05-12T01:29:11;101506.03;;;10.91;100.00
59513;BME280;45330;51.634;5.562;2023-05-12T01:31:37;101491.25;;;10.82;100.00
59513;BME280;45330;51.634;5.562;2023-05-12T01:34:03;101470.38;;;10.65;100.00
59513;BME280;45330;51.634;5.562;2023-05-12T01:36:28;101499.03;;;10.74;100.00
59513;BME280;45330;51.634;5.562;2023-05-12T01:38:54;101498.16;;;10.71;100.00
59513;BME280;45330;51.634;5.562;2023-05-12T01:41:19;101496.41;;;10.70;100.00
59513;BME280;45330;51.634;5.562;2023-05-12T01:43:45;101490.31;;;10.63;100.00
59513;BME280;45330;51.634;5.562;2023-05-12T01:46:10;101489.44;;;10.61;100.00
59513;BME280;45330;51.634;5.562;2023-05-12T01:48:36;101487.69;;;10.58;100.00
59513;BME280;45330;51.634;5.562;2023-05-12T01:51:01;101480.72;;;10.53;100.00
59513;BME280;45330;51.634;5.562;2023-05-12T01:53:27;101485.03;;;10.49;100.00
59513;BME280;45330;51.634;5.562;2023-05-12T01:55:52;101483.31;;;10.46;100.00
59513;BME280;45330;51.634;5.562;2023-05-12T01:58:18;101488.53;;;10.51;100.00
59513;BME280;45330;51.634;5.562;2023-05-12T02:00:44;101482.44;;;10.47;100.00
59513;BME280;45330;51.634;5.562;2023-05-12T02:03:09;101449.34;;;10.28;100.00
59513;BME280;45330;51.634;5.562;2023-05-12T02:05:35;101478.97;;;10.44;100.00
59513;BME280;45330;51.634;5.562;2023-05-12T02:08:00;101478.06;;;10.42;100.00
59513;BME280;45330;51.634;5.562;2023-05-12T02:10:25;101461.53;;;10.32;100.00
59513;BME280;45330;51.634;5.562;2023-05-12T02:12:51;101457.25;;;10.36;100.00
59513;BME280;45330;51.634;5.562;2023-05-12T02:15:17;101473.78;;;10.47;100.00
59513;BME280;45330;51.634;5.562;2023-05-12T02:17:42;101478.13;;;10.46;100.00
59513;BME280;45330;51.634;5.562;2023-05-12T02:20:08;101445.91;;;10.30;100.00
59513;BME280;45330;51.634;5.562;2023-05-12T02:22:36;101455.50;;;10.36;100.00
59513;BME280;45330;51.634;5.562;2023-05-12T02:25:01;101467.66;;;10.43;100.00
59513;BME280;45330;51.634;5.562;2023-05-12T02:27:27;101459.00;;;10.41;100.00
59513;BME280;45330;51.634;5.562;2023-05-12T02:29:52;101445.91;;;10.34;100.00
59513;BME280;45330;51.634;5.562;2023-05-12T02:32:18;101464.22;;;10.47;100.00
59513;BME280;45330;51.634;5.562;2023-05-12T02:34:43;101448.59;;;10.35;100.00
59513;BME280;45330;51.634;5.562;2023-05-12T02:37:10;101454.66;;;10.37;100.00
59513;BME280;45330;51.634;5.562;2023-05-12T02:39:35;101450.28;;;10.36;100.00
59513;BME280;45330;51.634;5.562;2023-05-12T02:42:00;101428.53;;;10.26;100.00
59513;BME280;45330;51.634;5.562;2023-05-12T02:44:26;101439.84;;;10.33;100.00
59513;BME280;45330;51.634;5.562;2023-05-12T02:46:51;101452.06;;;10.39;100.00
59513;BME280;45330;51.634;5.562;2023-05-12T02:49:17;101439.84;;;10.32;100.00
59513;BME280;45330;51.634;5.562;2023-05-12T02:51:42;101430.28;;;10.23;100.00
59513;BME280;45330;51.634;5.562;2023-05-12T02:54:07;101443.38;;;10.38;100.00
59513;BME280;45330;51.634;5.562;2023-05-12T02:56:33;101423.34;;;10.26;100.00
59513;BME280;45330;51.634;5.562;2023-05-12T02:58:58;101441.63;;;10.37;100.00
59513;BME280;45330;51.634;5.562;2023-05-12T03:01:23;101443.38;;;10.38;100.00
59513;BME280;45330;51.634;5.562;2023-05-12T03:03:49;101443.41;;;10.41;100.00
59513;BME280;45330;51.634;5.562;2023-05-12T03:06:14;101428.63;;;10.34;100.00
59513;BME280;45330;51.634;5.562;2023-05-12T03:08:40;101422.50;;;10.27;100.00
59513;BME280;45330;51.634;5.562;2023-05-12T03:11:05;101437.28;;;10.35;100.00
59513;BME280;45330;51.634;5.562;2023-05-12T03:13:30;101422.47;;;10.26;100.00
59513;BME280;45330;51.634;5.562;2023-05-12T03:15:56;101436.38;;;10.29;100.00
59513;BME280;45330;51.634;5.562;2023-05-12T03:18:25;101415.53;;;10.25;100.00
59513;BME280;45330;51.634;5.562;2023-05-12T03:20:51;101433.84;;;10.36;100.00
59513;BME280;45330;51.634;5.562;2023-05-12T03:23:17;101409.47;;;10.23;100.00
59513;BME280;45330;51.634;5.562;2023-05-12T03:25:42;101432.03;;;10.33;100.00
59513;BME280;45330;51.634;5.562;2023-05-12T03:28:07;101422.50;;;10.32;100.00
59513;BME280;45330;51.634;5.562;2023-05-12T03:30:33;101427.78;;;10.35;100.00
59513;BME280;45330;51.634;5.562;2023-05-12T03:32:58;101433.84;;;10.37;100.00
59513;BME280;45330;51.634;5.562;2023-05-12T03:35:24;101425.16;;;10.35;100.00
59513;BME280;45330;51.634;5.562;2023-05-12T03:37:49;101424.28;;;10.36;100.00
59513;BME280;45330;51.634;5.562;2023-05-12T03:40:15;101418.19;;;10.33;100.00
59513;BME280;45330;51.634;5.562;2023-05-12T03:42:43;101391.28;;;10.24;100.00
59513;BME280;45330;51.634;5.562;2023-05-12T03:45:09;101392.13;;;10.25;100.00
59513;BME280;45330;51.634;5.562;2023-05-12T03:47:34;101413.91;;;10.41;100.00
59513;BME280;45330;51.634;5.562;2023-05-12T03:50:00;101407.81;;;10.40;100.00
59513;BME280;45330;51.634;5.562;2023-05-12T03:52:25;101403.47;;;10.38;100.00
59513;BME280;45330;51.634;5.562;2023-05-12T03:54:51;101414.78;;;10.40;100.00
59513;BME280;45330;51.634;5.562;2023-05-12T03:57:16;101405.22;;;10.40;100.00
59513;BME280;45330;51.634;5.562;2023-05-12T03:59:42;101393.88;;;10.30;100.00
59513;BME280;45330;51.634;5.562;2023-05-12T04:02:08;101405.22;;;10.43;100.00
59513;BME280;45330;51.634;5.562;2023-05-12T04:04:36;101381.72;;;10.25;100.00
59513;BME280;45330;51.634;5.562;2023-05-12T04:07:01;101403.50;;;10.42;100.00
59513;BME280;45330;51.634;5.562;2023-05-12T04:09:30;101393.88;;;10.34;100.00
59513;BME280;45330;51.634;5.562;2023-05-12T04:11:56;101389.56;;;10.33;100.00
59513;BME280;45330;51.634;5.562;2023-05-12T04:14:21;101395.66;;;10.38;100.00
59513;BME280;45330;51.634;5.562;2023-05-12T04:16:47;101397.41;;;10.42;100.00
59513;BME280;45330;51.634;5.562;2023-05-12T04:19:12;101394.81;;;10.42;100.00
59513;BME280;45330;51.634;5.562;2023-05-12T04:21:38;101388.75;;;10.38;100.00
59513;BME280;45330;51.634;5.562;2023-05-12T04:24:03;101415.69;;;10.54;100.00
59513;BME280;45330;51.634;5.562;2023-05-12T04:26:29;101408.75;;;10.55;100.00
59513;BME280;45330;51.634;5.562;2023-05-12T04:28:54;101406.13;;;10.53;100.00
59513;BME280;45330;51.634;5.562;2023-05-12T04:31:20;101413.97;;;10.58;100.00
59513;BME280;45330;51.634;5.562;2023-05-12T04:33:45;101416.56;;;10.55;100.00
59513;BME280;45330;51.634;5.562;2023-05-12T04:36:11;101414.84;;;10.60;100.00
59513;BME280;45330;51.634;5.562;2023-05-12T04:38:38;101416.56;;;10.62;100.00
59513;BME280;45330;51.634;5.562;2023-05-12T04:41:04;101399.22;;;10.55;100.00
59513;BME280;45330;51.634;5.562;2023-05-12T04:43:30;101408.78;;;10.64;100.00
59513;BME280;45330;51.634;5.562;2023-05-12T04:45:56;101410.53;;;10.63;100.00
59513;BME280;45330;51.634;5.562;2023-05-12T04:48:21;101413.97;;;10.67;100.00
59513;BME280;45330;51.634;5.562;2023-05-12T04:50:47;101418.34;;;10.70;100.00
59513;BME280;45330;51.634;5.562;2023-05-12T04:53:16;101419.22;;;10.72;100.00
59513;BME280;45330;51.634;5.562;2023-05-12T04:55:42;101404.41;;;10.60;100.00
59513;BME280;45330;51.634;5.562;2023-05-12T04:58:11;101407.06;;;10.66;100.00
59513;BME280;45330;51.634;5.562;2023-05-12T05:00:37;101400.97;;;10.69;100.00
59513;BME280;45330;51.634;5.562;2023-05-12T05:03:02;101422.72;;;10.81;100.00
59513;BME280;45330;51.634;5.562;2023-05-12T05:05:28;101407.91;;;10.71;100.00
59513;BME280;45330;51.634;5.562;2023-05-12T05:07:53;101431.38;;;10.85;100.00
59513;BME280;45330;51.634;5.562;2023-05-12T05:10:18;101430.53;;;10.94;100.00
59513;BME280;45330;51.634;5.562;2023-05-12T05:12:44;101426.19;;;10.87;100.00
59513;BME280;45330;51.634;5.562;2023-05-12T05:15:09;101438.38;;;10.97;100.00
59513;BME280;45330;51.634;5.562;2023-05-12T05:17:35;101440.97;;;11.00;100.00
59513;BME280;45330;51.634;5.562;2023-05-12T05:20:01;101441.84;;;11.02;100.00
59513;BME280;45330;51.634;5.562;2023-05-12T05:22:26;101446.19;;;11.08;100.00
59513;BME280;45330;51.634;5.562;2023-05-12T05:24:52;101421.84;;;10.98;100.00
59513;BME280;45330;51.634;5.562;2023-05-12T05:27:17;101424.47;;;11.01;100.00
59513;BME280;45330;51.634;5.562;2023-05-12T05:29:43;101452.28;;;11.18;100.00
59513;BME280;45330;51.634;5.562;2023-05-12T05:32:08;101460.97;;;11.23;100.00
59513;BME280;45330;51.634;5.562;2023-05-12T05:34:33;101442.75;;;11.21;100.00
59513;BME280;45330;51.634;5.562;2023-05-12T05:36:59;101437.53;;;11.18;100.00
59513;BME280;45330;51.634;5.562;2023-05-12T05:39:24;101436.66;;;11.14;100.00
59513;BME280;45330;51.634;5.562;2023-05-12T05:41:49;101436.63;;;11.21;100.00
59513;BME280;45330;51.634;5.562;2023-05-12T05:44:15;101467.94;;;11.39;100.00
59513;BME280;45330;51.634;5.562;2023-05-12T05:46:40;101473.13;;;11.47;100.00
59513;BME280;45330;51.634;5.562;2023-05-12T05:49:05;101464.44;;;11.54;100.00
59513;BME280;45330;51.634;5.562;2023-05-12T05:51:31;101474.84;;;11.74;100.00
59513;BME280;45330;51.634;5.562;2023-05-12T05:53:57;101452.25;;;11.82;100.00
59513;BME280;45330;51.634;5.562;2023-05-12T05:56:22;101480.09;;;12.08;100.00
59513;BME280;45330;51.634;5.562;2023-05-12T05:58:48;101475.69;;;12.26;100.00
59513;BME280;45330;51.634;5.562;2023-05-12T06:01:13;101465.19;;;12.49;100.00
59513;BME280;45330;51.634;5.562;2023-05-12T06:03:39;101476.00;;;13.39;100.00
59513;BME280;45330;51.634;5.562;2023-05-12T06:06:05;101480.06;;;13.74;100.00
59513;BME280;45330;51.634;5.562;2023-05-12T06:08:31;101460.56;;;14.04;100.00
59513;BME280;45330;51.634;5.562;2023-05-12T06:10:56;101462.63;;;14.52;100.00
59513;BME280;45330;51.634;5.562;2023-05-12T06:13:21;101475.13;;;15.00;100.00
59513;BME280;45330;51.634;5.562;2023-05-12T06:15:47;101497.63;;;15.17;100.00
59513;BME280;45330;51.634;5.562;2023-05-12T06:18:13;101483.03;;;14.97;100.00
59513;BME280;45330;51.634;5.562;2023-05-12T06:20:38;101490.69;;;14.43;100.00
59513;BME280;45330;51.634;5.562;2023-05-12T06:23:05;101488.72;;;13.79;100.00
59513;BME280;45330;51.634;5.562;2023-05-12T06:25:30;101489.84;;;13.50;100.00
59513;BME280;45330;51.634;5.562;2023-05-12T06:27:57;101498.63;;;13.43;100.00
59513;BME280;45330;51.634;5.562;2023-05-12T06:30:22;101508.19;;;13.47;100.00
59513;BME280;45330;51.634;5.562;2023-05-12T06:32:48;101522.94;;;13.51;100.00
59513;BME280;45330;51.634;5.562;2023-05-12T06:35:13;101508.06;;;13.60;100.00
59513;BME280;45330;51.634;5.562;2023-05-12T06:37:39;101526.22;;;13.78;100.00
59513;BME280;45330;51.634;5.562;2023-05-12T06:40:05;101524.59;;;13.66;100.00
59513;BME280;45330;51.634;5.562;2023-05-12T06:42:30;101493.25;;;13.62;100.00
59513;BME280;45330;51.634;5.562;2023-05-12T06:44:55;101525.38;;;13.78;100.00
59513;BME280;45330;51.634;5.562;2023-05-12T06:47:21;101526.00;;;14.04;100.00
59513;BME280;45330;51.634;5.562;2023-05-12T06:49:46;101518.09;;;14.12;100.00
59513;BME280;45330;51.634;5.562;2023-05-12T06:52:14;101539.81;;;14.17;100.00
59513;BME280;45330;51.634;5.562;2023-05-12T06:54:39;101521.78;;;13.89;100.00
59513;BME280;45330;51.634;5.562;2023-05-12T06:57:04;101539.19;;;13.92;100.00
59513;BME280;45330;51.634;5.562;2023-05-12T06:59:30;101543.50;;;14.01;100.00
59513;BME280;45330;51.634;5.562;2023-05-12T07:01:55;101530.59;;;13.78;100.00
59513;BME280;45330;51.634;5.562;2023-05-12T07:04:21;101533.97;;;13.92;100.00
59513;BME280;45330;51.634;5.562;2023-05-12T07:06:46;101558.25;;;14.10;100.00
59513;BME280;45330;51.634;5.562;2023-05-12T07:09:12;101532.13;;;14.05;100.00
59513;BME280;45330;51.634;5.562;2023-05-12T07:11:38;101547.53;;;14.31;100.00
59513;BME280;45330;51.634;5.562;2023-05-12T07:14:03;101539.66;;;14.33;100.00
59513;BME280;45330;51.634;5.562;2023-05-12T07:16:29;101563.22;;;14.34;100.00
59513;BME280;45330;51.634;5.562;2023-05-12T07:18:54;101558.91;;;14.32;100.00
59513;BME280;45330;51.634;5.562;2023-05-12T07:21:20;101556.28;;;14.29;100.00
59513;BME280;45330;51.634;5.562;2023-05-12T07:23:46;101532.72;;;14.29;100.00
59513;BME280;45330;51.634;5.562;2023-05-12T07:26:11;101561.19;;;14.59;100.00
59513;BME280;45330;51.634;5.562;2023-05-12T07:28:36;101543.13;;;14.38;100.00
59513;BME280;45330;51.634;5.562;2023-05-12T07:31:06;101535.38;;;14.27;100.00
59513;BME280;45330;51.634;5.562;2023-05-12T07:33:33;101565.66;;;14.50;100.00
59513;BME280;45330;51.634;5.562;2023-05-12T07:35:59;101570.81;;;14.59;100.00
59513;BME280;45330;51.634;5.562;2023-05-12T07:38:25;101570.81;;;14.62;100.00
59513;BME280;45330;51.634;5.562;2023-05-12T07:40:50;101579.28;;;14.84;100.00
59513;BME280;45330;51.634;5.562;2023-05-12T07:43:16;101576.63;;;14.87;100.00
59513;BME280;45330;51.634;5.562;2023-05-12T07:45:42;101586.94;;;15.01;100.00
59513;BME280;45330;51.634;5.562;2023-05-12T07:48:07;101572.06;;;15.05;100.00
59513;BME280;45330;51.634;5.562;2023-05-12T07:50:33;101545.00;;;15.03;100.00
59513;BME280;45330;51.634;5.562;2023-05-12T07:52:58;101582.16;;;15.33;100.00
59513;BME280;45330;51.634;5.562;2023-05-12T07:55:24;101587.34;;;15.39;100.00
59513;BME280;45330;51.634;5.562;2023-05-12T07:57:49;101579.44;;;15.40;100.00
59513;BME280;45330;51.634;5.562;2023-05-12T08:00:15;101568.91;;;15.43;100.00
59513;BME280;45330;51.634;5.562;2023-05-12T08:02:41;101588.81;;;15.58;100.00
59513;BME280;45330;51.634;5.562;2023-05-12T08:05:08;101581.91;;;15.50;100.00
59513;BME280;45330;51.634;5.562;2023-05-12T08:07:35;101575.09;;;15.38;100.00
59513;BME280;45330;51.634;5.562;2023-05-12T08:10:02;101563.47;;;15.56;100.00
59513;BME280;45330;51.634;5.562;2023-05-12T08:12:28;101592.00;;;15.79;100.00
59513;BME280;45330;51.634;5.562;2023-05-12T08:14:53;101595.56;;;15.72;100.00
59513;BME280;45330;51.634;5.562;2023-05-12T08:17:19;101594.28;;;15.41;100.00
59513;BME280;45330;51.634;5.562;2023-05-12T08:19:45;101580.59;;;15.21;100.00
59513;BME280;45330;51.634;5.562;2023-05-12T08:22:10;101605.41;;;15.59;100.00
59513;BME280;45330;51.634;5.562;2023-05-12T08:24:35;101576.47;;;15.64;100.00
59513;BME280;45330;51.634;5.562;2023-05-12T08:27:01;101597.44;;;15.67;100.00
59513;BME280;45330;51.634;5.562;2023-05-12T08:29:26;101586.56;;;15.91;100.00
59513;BME280;45330;51.634;5.562;2023-05-12T08:31:52;101610.81;;;16.06;100.00
59513;BME280;45330;51.634;5.562;2023-05-12T08:34:17;101606.94;;;16.27;100.00
59513;BME280;45330;51.634;5.562;2023-05-12T08:36:42;101582.44;;;16.28;100.00
59513;BME280;45330;51.634;5.562;2023-05-12T08:39:08;101606.25;;;16.66;100.00
59513;BME280;45330;51.634;5.562;2023-05-12T08:44:14;101621.97;;;16.69;100.00
59513;BME280;45330;51.634;5.562;2023-05-12T08:46:40;101630.63;;;16.74;100.00
59513;BME280;45330;51.634;5.562;2023-05-12T08:49:09;101630.59;;;16.75;100.00
59513;BME280;45330;51.634;5.562;2023-05-12T08:51:37;101629.78;;;16.72;100.00
59513;BME280;45330;51.634;5.562;2023-05-12T08:54:07;101624.28;;;16.84;100.00
59513;BME280;45330;51.634;5.562;2023-05-12T08:56:33;101624.31;;;16.83;100.00
59513;BME280;45330;51.634;5.562;2023-05-12T08:59:01;101627.81;;;17.28;100.00
59513;BME280;45330;51.634;5.562;2023-05-12T09:01:28;101619.50;;;17.47;100.00
59513;BME280;45330;51.634;5.562;2023-05-12T09:03:54;101627.31;;;17.50;100.00
59513;BME280;45330;51.634;5.562;2023-05-12T09:06:19;101631.41;;;17.63;100.00
59513;BME280;45330;51.634;5.562;2023-05-12T09:08:45;101631.34;;;17.66;100.00
59513;BME280;45330;51.634;5.562;2023-05-12T09:11:10;101639.88;;;17.78;100.00
59513;BME280;45330;51.634;5.562;2023-05-12T09:13:59;101635.72;;;17.66;100.00
59513;BME280;45330;51.634;5.562;2023-05-12T09:16:28;101618.22;;;17.65;100.00
59513;BME280;45330;51.634;5.562;2023-05-12T09:18:58;101640.66;;;18.19;100.00
59513;BME280;45330;51.634;5.562;2023-05-12T09:21:24;101633.09;;;18.05;100.00
59513;BME280;45330;51.634;5.562;2023-05-12T09:24:01;101627.09;;;17.61;100.00
59513;BME280;45330;51.634;5.562;2023-05-12T09:26:32;101637.59;;;17.62;100.00
59513;BME280;45330;51.634;5.562;2023-05-12T09:29:08;101616.34;;;17.70;100.00
59513;BME280;45330;51.634;5.562;2023-05-12T09:31:34;101624.16;;;17.73;100.00
59513;BME280;45330;51.634;5.562;2023-05-12T09:33:59;101629.66;;;17.64;100.00
59513;BME280;45330;51.634;5.562;2023-05-12T09:36:26;101608.59;;;17.64;100.00
59513;BME280;45330;51.634;5.562;2023-05-12T09:39:18;101643.47;;;17.74;100.00
59513;BME280;45330;51.634;5.562;2023-05-12T09:41:44;101631.00;;;17.80;100.00
59513;BME280;45330;51.634;5.562;2023-05-12T09:44:09;101620.06;;;17.61;100.00
59513;BME280;45330;51.634;5.562;2023-05-12T09:46:38;101630.69;;;17.57;100.00
59513;BME280;45330;51.634;5.562;2023-05-12T09:49:06;101622.06;;;17.50;100.00
59513;BME280;45330;51.634;5.562;2023-05-12T09:51:32;101625.84;;;17.37;99.60
59513;BME280;45330;51.634;5.562;2023-05-12T09:53:58;101657.94;;;17.54;100.00
59513;BME280;45330;51.634;5.562;2023-05-12T09:56:26;101627.22;;;17.55;99.27
59513;BME280;45330;51.634;5.562;2023-05-12T09:58:54;101655.66;;;17.78;94.91
59513;BME280;45330;51.634;5.562;2023-05-12T10:01:21;101658.53;;;17.67;94.81
59513;BME280;45330;51.634;5.562;2023-05-12T10:03:51;101666.22;;;17.75;91.97
59513;BME280;45330;51.634;5.562;2023-05-12T10:06:30;101660.69;;;17.87;95.72
59513;BME280;45330;51.634;5.562;2023-05-12T10:09:23;101660.59;;;17.93;94.91
59513;BME280;45330;51.634;5.562;2023-05-12T10:11:50;101666.28;;;17.73;90.79
59513;BME280;45330;51.634;5.562;2023-05-12T10:14:16;101668.50;;;17.90;92.73
59513;BME280;45330;51.634;5.562;2023-05-12T10:16:44;101643.38;;;17.77;92.59
59513;BME280;45330;51.634;5.562;2023-05-12T10:19:11;101669.81;;;17.72;89.27
59513;BME280;45330;51.634;5.562;2023-05-12T10:21:38;101659.03;;;17.83;89.71
59513;BME280;45330;51.634;5.562;2023-05-12T10:24:04;101649.25;;;17.88;91.12
59513;BME280;45330;51.634;5.562;2023-05-12T10:26:31;101680.66;;;17.99;88.77
59513;BME280;45330;51.634;5.562;2023-05-12T10:28:57;101643.66;;;18.04;87.47
59513;BME280;45330;51.634;5.562;2023-05-12T10:31:24;101652.38;;;18.06;85.75
59513;BME280;45330;51.634;5.562;2023-05-12T10:33:57;101674.56;;;17.95;87.27
59513;BME280;45330;51.634;5.562;2023-05-12T10:36:23;101676.53;;;17.86;88.54
59513;BME280;45330;51.634;5.562;2023-05-12T10:38:49;101673.75;;;17.93;91.71
59513;BME280;45330;51.634;5.562;2023-05-12T10:41:14;101659.97;;;17.80;84.25
59513;BME280;45330;51.634;5.562;2023-05-12T10:43:42;101675.44;;;17.97;87.50
59513;BME280;45330;51.634;5.562;2023-05-12T10:51:29;101682.81;;;17.80;91.61
59513;BME280;45330;51.634;5.562;2023-05-12T10:54:05;101669.03;;;17.69;89.44
59513;BME280;45330;51.634;5.562;2023-05-12T11:01:57;101690.03;;;17.70;88.46
59513;BME280;45330;51.634;5.562;2023-05-12T11:04:22;101673.81;;;17.51;85.59
59513;BME280;45330;51.634;5.562;2023-05-12T11:06:59;101683.38;;;17.55;88.67
59513;BME280;45330;51.634;5.562;2023-05-12T11:09:25;101679.41;;;17.75;87.35
59513;BME280;45330;51.634;5.562;2023-05-12T11:11:50;101696.53;;;17.94;85.63
59513;BME280;45330;51.634;5.562;2023-05-12T11:14:16;101688.28;;;17.71;83.80
59513;BME280;45330;51.634;5.562;2023-05-12T11:16:43;101676.06;;;17.27;81.72
59513;BME280;45330;51.634;5.562;2023-05-12T11:19:09;101696.31;;;17.22;84.74
59513;BME280;45330;51.634;5.562;2023-05-12T11:21:35;101699.19;;;17.10;86.85
59513;BME280;45330;51.634;5.562;2023-05-12T11:24:02;101711.22;;;17.23;86.22
59513;BME280;45330;51.634;5.562;2023-05-12T11:26:28;101712.78;;;17.32;84.75
59513;BME280;45330;51.634;5.562;2023-05-12T11:28:55;101683.94;;;17.27;83.88
59513;BME280;45330;51.634;5.562;2023-05-12T11:31:21;101685.84;;;17.61;86.05
59513;BME280;45330;51.634;5.562;2023-05-12T11:33:47;101705.69;;;17.78;82.48
59513;BME280;45330;51.634;5.562;2023-05-12T11:36:13;101707.91;;;17.96;79.71
59513;BME280;45330;51.634;5.562;2023-05-12T11:38:39;101700.59;;;18.09;79.39
59513;BME280;45330;51.634;5.562;2023-05-12T11:41:04;101694.78;;;18.31;81.25
59513;BME280;45330;51.634;5.562;2023-05-12T11:43:30;101716.16;;;18.55;74.98
59513;BME280;45330;51.634;5.562;2023-05-12T11:45:55;101710.44;;;18.72;74.26
59513;BME280;45330;51.634;5.562;2023-05-12T11:48:21;101698.25;;;18.67;73.41
59513;BME280;45330;51.634;5.562;2023-05-12T11:50:48;101711.28;;;18.74;74.22
59513;BME280;45330;51.634;5.562;2023-05-12T11:53:16;101716.56;;;18.74;73.81
59513;BME280;45330;51.634;5.562;2023-05-12T11:55:57;101720.84;;;18.78;72.67
59513;BME280;45330;51.634;5.562;2023-05-12T11:58:25;101713.50;;;18.91;77.87
59513;BME280;45330;51.634;5.562;2023-05-12T12:00:51;101695.91;;;18.91;74.47
59513;BME280;45330;51.634;5.562;2023-05-12T12:03:16;101706.72;;;19.13;74.28
59513;BME280;45330;51.634;5.562;2023-05-12T12:05:44;101714.72;;;19.42;76.40
59513;BME280;45330;51.634;5.562;2023-05-12T12:08:14;101712.47;;;19.58;74.80
59513;BME280;45330;51.634;5.562;2023-05-12T12:10:49;101695.78;;;19.87;71.95
59513;BME280;45330;51.634;5.562;2023-05-12T12:13:24;101703.66;;;20.17;71.66
59513;BME280;45330;51.634;5.562;2023-05-12T12:15:50;101702.81;;;20.68;68.80
59513;BME280;45330;51.634;5.562;2023-05-12T12:18:16;101697.69;;;20.89;67.83
59513;BME280;45330;51.634;5.562;2023-05-12T12:20:43;101716.41;;;21.08;65.76
59513;BME280;45330;51.634;5.562;2023-05-12T12:23:09;101729.75;;;20.80;64.58
59513;BME280;45330;51.634;5.562;2023-05-12T12:25:34;101728.53;;;20.63;65.36
59513;BME280;45330;51.634;5.562;2023-05-12T12:28:00;101718.69;;;20.42;65.61
59513;BME280;45330;51.634;5.562;2023-05-12T12:30:26;101744.31;;;20.13;64.77
59513;BME280;45330;51.634;5.562;2023-05-12T12:32:51;101744.69;;;20.00;67.30
59513;BME280;45330;51.634;5.562;2023-05-12T12:35:17;101741.19;;;19.98;67.30
59513;BME280;45330;51.634;5.562;2023-05-12T12:37:44;101721.06;;;19.94;66.51
59513;BME280;45330;51.634;5.562;2023-05-12T12:40:15;101734.00;;;20.03;66.44
59513;BME280;45330;51.634;5.562;2023-05-12T12:42:41;101721.38;;;19.85;67.65
59513;BME280;45330;51.634;5.562;2023-05-12T12:45:06;101743.47;;;20.11;67.63
59513;BME280;45330;51.634;5.562;2023-05-12T12:47:33;101734.44;;;20.45;68.03
59513;BME280;45330;51.634;5.562;2023-05-12T12:49:58;101732.28;;;20.29;64.87
59513;BME280;45330;51.634;5.562;2023-05-12T12:52:24;101753.88;;;20.44;63.87
59513;BME280;45330;51.634;5.562;2023-05-12T12:54:49;101746.13;;;20.37;64.46